sensor_id;sensor_type;location;lat;lon;timestamp;P1;durP1;ratioP1;P2;durP2;ratioP2
11671;SDS011;5892;43.412;24.612;2023-05-07T00:01:12;4.23;;;3.10;;
11671;SDS011;5892;43.412;24.612;2023-05-07T00:03:39;4.77;;;2.70;;
11671;SDS011;5892;43.412;24.612;2023-05-07T00:06:06;4.77;;;2.70;;
11671;SDS011;5892;43.412;24.612;2023-05-07T00:08:35;3.13;;;2.63;;
11671;SDS011;5892;43.412;24.612;2023-05-07T00:11:02;3.37;;;2.23;;
11671;SDS011;5892;43.412;24.612;2023-05-07T00:13:29;3.53;;;2.90;;
11671;SDS011;5892;43.412;24.612;2023-05-07T00:16:00;4.47;;;2.63;;
11671;SDS011;5892;43.412;24.612;2023-05-07T00:18:27;3.27;;;2.97;;
11671;SDS011;5892;43.412;24.612;2023-05-07T00:20:54;5.80;;;3.33;;
11671;SDS011;5892;43.412;24.612;2023-05-07T00:23:21;4.63;;;3.10;;
11671;SDS011;5892;43.412;24.612;2023-05-07T00:25:49;3.30;;;2.80;;
11671;SDS011;5892;43.412;24.612;2023-05-07T00:28:16;3.73;;;2.93;;
11671;SDS011;5892;43.412;24.612;2023-05-07T00:30:43;4.73;;;3.20;;
11671;SDS011;5892;43.412;24.612;2023-05-07T00:33:10;3.50;;;3.00;;
11671;SDS011;5892;43.412;24.612;2023-05-07T00:35:37;5.17;;;3.03;;
11671;SDS011;5892;43.412;24.612;2023-05-07T00:38:04;3.87;;;2.90;;
11671;SDS011;5892;43.412;24.612;2023-05-07T00:40:30;3.47;;;3.00;;
11671;SDS011;5892;43.412;24.612;2023-05-07T00:42:59;3.93;;;3.03;;
11671;SDS011;5892;43.412;24.612;2023-05-07T00:45:26;3.90;;;3.40;;
11671;SDS011;5892;43.412;24.612;2023-05-07T00:47:54;4.63;;;3.50;;
11671;SDS011;5892;43.412;24.612;2023-05-07T00:50:21;6.83;;;3.40;;
11671;SDS011;5892;43.412;24.612;2023-05-07T00:52:48;3.30;;;3.00;;
11671;SDS011;5892;43.412;24.612;2023-05-07T00:55:15;3.67;;;3.27;;
11671;SDS011;5892;43.412;24.612;2023-05-07T00:57:43;3.43;;;3.10;;
11671;SDS011;5892;43.412;24.612;2023-05-07T01:00:12;9.63;;;3.60;;
11671;SDS011;5892;43.412;24.612;2023-05-07T01:02:41;8.10;;;3.40;;
11671;SDS011;5892;43.412;24.612;2023-05-07T01:05:09;6.57;;;3.50;;
11671;SDS011;5892;43.412;24.612;2023-05-07T01:07:37;4.67;;;3.43;;
11671;SDS011;5892;43.412;24.612;2023-05-07T01:10:06;5.57;;;3.10;;
11671;SDS011;5892;43.412;24.612;2023-05-07T01:12:35;5.77;;;3.37;;
11671;SDS011;5892;43.412;24.612;2023-05-07T01:15:02;3.60;;;3.30;;
11671;SDS011;5892;43.412;24.612;2023-05-07T01:17:34;5.87;;;3.33;;
11671;SDS011;5892;43.412;24.612;2023-05-07T01:20:01;5.53;;;3.27;;
11671;SDS011;5892;43.412;24.612;2023-05-07T01:22:31;5.00;;;3.73;;
11671;SDS011;5892;43.412;24.612;2023-05-07T01:24:59;4.77;;;3.30;;
11671;SDS011;5892;43.412;24.612;2023-05-07T01:27:27;4.17;;;3.27;;
11671;SDS011;5892;43.412;24.612;2023-05-07T01:29:54;4.80;;;3.47;;
11671;SDS011;5892;43.412;24.612;2023-05-07T01:32:25;3.97;;;3.50;;
11671;SDS011;5892;43.412;24.612;2023-05-07T01:34:55;3.57;;;3.27;;
11671;SDS011;5892;43.412;24.612;2023-05-07T01:37:24;5.43;;;3.83;;
11671;SDS011;5892;43.412;24.612;2023-05-07T01:39:54;3.77;;;3.27;;
11671;SDS011;5892;43.412;24.612;2023-05-07T01:42:21;6.67;;;3.30;;
11671;SDS011;5892;43.412;24.612;2023-05-07T01:44:48;4.17;;;3.37;;
11671;SDS011;5892;43.412;24.612;2023-05-07T01:47:15;4.97;;;3.40;;
11671;SDS011;5892;43.412;24.612;2023-05-07T01:49:43;3.60;;;3.30;;
11671;SDS011;5892;43.412;24.612;2023-05-07T01:52:10;4.27;;;3.43;;
11671;SDS011;5892;43.412;24.612;2023-05-07T01:54:37;3.93;;;3.53;;
11671;SDS011;5892;43.412;24.612;2023-05-07T01:57:05;4.10;;;3.70;;
11671;SDS011;5892;43.412;24.612;2023-05-07T01:59:32;4.20;;;3.80;;
11671;SDS011;5892;43.412;24.612;2023-05-07T02:01:59;5.47;;;3.73;;
11671;SDS011;5892;43.412;24.612;2023-05-07T02:04:26;4.97;;;3.73;;
11671;SDS011;5892;43.412;24.612;2023-05-07T02:06:53;4.40;;;4.00;;
11671;SDS011;5892;43.412;24.612;2023-05-07T02:09:20;5.33;;;3.70;;
11671;SDS011;5892;43.412;24.612;2023-05-07T02:11:48;4.27;;;3.87;;
11671;SDS011;5892;43.412;24.612;2023-05-07T02:14:16;6.97;;;3.77;;
11671;SDS011;5892;43.412;24.612;2023-05-07T02:16:43;4.90;;;3.83;;
11671;SDS011;5892;43.412;24.612;2023-05-07T02:19:09;6.27;;;4.20;;
11671;SDS011;5892;43.412;24.612;2023-05-07T02:21:36;4.33;;;3.93;;
11671;SDS011;5892;43.412;24.612;2023-05-07T02:24:03;7.07;;;4.20;;
11671;SDS011;5892;43.412;24.612;2023-05-07T02:26:31;4.87;;;4.10;;
11671;SDS011;5892;43.412;24.612;2023-05-07T02:28:57;4.53;;;3.97;;
11671;SDS011;5892;43.412;24.612;2023-05-07T02:31:26;6.23;;;4.60;;
11671;SDS011;5892;43.412;24.612;2023-05-07T02:33:53;6.73;;;4.23;;
11671;SDS011;5892;43.412;24.612;2023-05-07T02:36:20;7.43;;;4.50;;
11671;SDS011;5892;43.412;24.612;2023-05-07T02:38:46;5.57;;;4.57;;
11671;SDS011;5892;43.412;24.612;2023-05-07T02:41:13;6.97;;;4.27;;
11671;SDS011;5892;43.412;24.612;2023-05-07T02:43:40;6.93;;;4.20;;
11671;SDS011;5892;43.412;24.612;2023-05-07T02:46:08;10.30;;;5.40;;
11671;SDS011;5892;43.412;24.612;2023-05-07T02:48:36;7.13;;;4.90;;
11671;SDS011;5892;43.412;24.612;2023-05-07T02:51:03;8.73;;;4.50;;
11671;SDS011;5892;43.412;24.612;2023-05-07T02:53:31;5.23;;;4.30;;
11671;SDS011;5892;43.412;24.612;2023-05-07T02:55:58;7.77;;;3.97;;
11671;SDS011;5892;43.412;24.612;2023-05-07T02:58:26;4.77;;;4.13;;
11671;SDS011;5892;43.412;24.612;2023-05-07T03:00:53;6.07;;;4.37;;
11671;SDS011;5892;43.412;24.612;2023-05-07T03:03:23;8.53;;;4.60;;
11671;SDS011;5892;43.412;24.612;2023-05-07T03:05:52;5.90;;;4.60;;
11671;SDS011;5892;43.412;24.612;2023-05-07T03:08:18;9.93;;;5.00;;
11671;SDS011;5892;43.412;24.612;2023-05-07T03:10:45;5.17;;;4.63;;
11671;SDS011;5892;43.412;24.612;2023-05-07T03:13:12;6.50;;;4.97;;
11671;SDS011;5892;43.412;24.612;2023-05-07T03:15:39;5.17;;;4.60;;
11671;SDS011;5892;43.412;24.612;2023-05-07T03:18:06;8.03;;;5.27;;
11671;SDS011;5892;43.412;24.612;2023-05-07T03:20:33;10.03;;;6.07;;
11671;SDS011;5892;43.412;24.612;2023-05-07T03:23:02;7.13;;;5.03;;
11671;SDS011;5892;43.412;24.612;2023-05-07T03:25:29;6.10;;;4.93;;
11671;SDS011;5892;43.412;24.612;2023-05-07T03:27:56;7.73;;;4.77;;
11671;SDS011;5892;43.412;24.612;2023-05-07T03:30:23;8.40;;;6.10;;
11671;SDS011;5892;43.412;24.612;2023-05-07T03:32:50;8.40;;;5.07;;
11671;SDS011;5892;43.412;24.612;2023-05-07T03:35:17;5.03;;;4.00;;
11671;SDS011;5892;43.412;24.612;2023-05-07T03:37:44;6.70;;;4.07;;
11671;SDS011;5892;43.412;24.612;2023-05-07T03:40:12;7.73;;;3.70;;
11671;SDS011;5892;43.412;24.612;2023-05-07T03:42:39;5.63;;;3.80;;
11671;SDS011;5892;43.412;24.612;2023-05-07T03:45:07;7.40;;;3.43;;
11671;SDS011;5892;43.412;24.612;2023-05-07T03:47:34;7.37;;;4.10;;
11671;SDS011;5892;43.412;24.612;2023-05-07T03:50:01;14.10;;;8.07;;
11671;SDS011;5892;43.412;24.612;2023-05-07T03:52:28;17.27;;;8.17;;
11671;SDS011;5892;43.412;24.612;2023-05-07T03:54:55;6.50;;;4.77;;
11671;SDS011;5892;43.412;24.612;2023-05-07T03:57:24;11.57;;;6.23;;
11671;SDS011;5892;43.412;24.612;2023-05-07T03:59:51;13.20;;;6.73;;
11671;SDS011;5892;43.412;24.612;2023-05-07T04:02:17;8.43;;;4.00;;
11671;SDS011;5892;43.412;24.612;2023-05-07T04:04:44;7.20;;;4.93;;
11671;SDS011;5892;43.412;24.612;2023-05-07T04:07:11;7.37;;;4.03;;
11671;SDS011;5892;43.412;24.612;2023-05-07T04:09:38;8.30;;;4.67;;
11671;SDS011;5892;43.412;24.612;2023-05-07T04:12:05;6.77;;;4.07;;
11671;SDS011;5892;43.412;24.612;2023-05-07T04:14:33;13.27;;;4.40;;
11671;SDS011;5892;43.412;24.612;2023-05-07T04:17:00;5.27;;;3.73;;
11671;SDS011;5892;43.412;24.612;2023-05-07T04:19:27;7.40;;;4.40;;
11671;SDS011;5892;43.412;24.612;2023-05-07T04:21:54;6.47;;;3.90;;
11671;SDS011;5892;43.412;24.612;2023-05-07T04:24:21;6.73;;;4.43;;
11671;SDS011;5892;43.412;24.612;2023-05-07T04:26:48;6.80;;;4.30;;
11671;SDS011;5892;43.412;24.612;2023-05-07T04:29:16;6.70;;;4.17;;
11671;SDS011;5892;43.412;24.612;2023-05-07T04:31:44;6.67;;;4.27;;
11671;SDS011;5892;43.412;24.612;2023-05-07T04:34:11;8.13;;;4.10;;
11671;SDS011;5892;43.412;24.612;2023-05-07T04:36:39;4.63;;;3.80;;
11671;SDS011;5892;43.412;24.612;2023-05-07T04:39:06;10.27;;;4.13;;
11671;SDS011;5892;43.412;24.612;2023-05-07T04:41:33;4.87;;;3.90;;
11671;SDS011;5892;43.412;24.612;2023-05-07T04:44:01;4.80;;;3.97;;
11671;SDS011;5892;43.412;24.612;2023-05-07T04:46:29;11.40;;;4.33;;
11671;SDS011;5892;43.412;24.612;2023-05-07T04:48:57;5.27;;;4.20;;
11671;SDS011;5892;43.412;24.612;2023-05-07T04:51:24;6.73;;;4.20;;
11671;SDS011;5892;43.412;24.612;2023-05-07T04:53:51;10.07;;;4.43;;
11671;SDS011;5892;43.412;24.612;2023-05-07T04:56:18;6.83;;;4.23;;
11671;SDS011;5892;43.412;24.612;2023-05-07T04:58:45;7.30;;;4.10;;
11671;SDS011;5892;43.412;24.612;2023-05-07T05:01:12;6.03;;;4.40;;
11671;SDS011;5892;43.412;24.612;2023-05-07T05:03:39;6.43;;;4.80;;
11671;SDS011;5892;43.412;24.612;2023-05-07T05:06:07;6.40;;;4.40;;
11671;SDS011;5892;43.412;24.612;2023-05-07T05:08:34;5.07;;;4.20;;
11671;SDS011;5892;43.412;24.612;2023-05-07T05:11:01;7.47;;;4.13;;
11671;SDS011;5892;43.412;24.612;2023-05-07T05:13:28;6.37;;;4.00;;
11671;SDS011;5892;43.412;24.612;2023-05-07T05:15:55;6.20;;;4.53;;
11671;SDS011;5892;43.412;24.612;2023-05-07T05:18:22;8.83;;;4.17;;
11671;SDS011;5892;43.412;24.612;2023-05-07T05:20:49;6.93;;;4.73;;
11671;SDS011;5892;43.412;24.612;2023-05-07T05:23:18;5.63;;;4.50;;
11671;SDS011;5892;43.412;24.612;2023-05-07T05:25:45;8.93;;;4.60;;
11671;SDS011;5892;43.412;24.612;2023-05-07T05:28:12;6.37;;;4.50;;
11671;SDS011;5892;43.412;24.612;2023-05-07T05:30:39;6.03;;;4.53;;
11671;SDS011;5892;43.412;24.612;2023-05-07T05:33:06;6.70;;;4.30;;
11671;SDS011;5892;43.412;24.612;2023-05-07T05:35:33;5.53;;;4.03;;
11671;SDS011;5892;43.412;24.612;2023-05-07T05:38:00;5.50;;;4.47;;
11671;SDS011;5892;43.412;24.612;2023-05-07T05:40:28;4.80;;;4.30;;
11671;SDS011;5892;43.412;24.612;2023-05-07T05:42:55;5.90;;;4.20;;
11671;SDS011;5892;43.412;24.612;2023-05-07T05:45:22;5.73;;;4.00;;
11671;SDS011;5892;43.412;24.612;2023-05-07T05:47:49;7.03;;;4.07;;
11671;SDS011;5892;43.412;24.612;2023-05-07T05:50:16;5.63;;;3.80;;
11671;SDS011;5892;43.412;24.612;2023-05-07T05:52:43;5.30;;;4.00;;
11671;SDS011;5892;43.412;24.612;2023-05-07T05:55:10;5.27;;;3.40;;
11671;SDS011;5892;43.412;24.612;2023-05-07T05:57:38;5.50;;;3.33;;
11671;SDS011;5892;43.412;24.612;2023-05-07T06:00:06;5.37;;;3.07;;
11671;SDS011;5892;43.412;24.612;2023-05-07T06:02:34;5.57;;;3.33;;
11671;SDS011;5892;43.412;24.612;2023-05-07T06:05:00;4.03;;;3.10;;
11671;SDS011;5892;43.412;24.612;2023-05-07T06:07:27;3.43;;;2.80;;
11671;SDS011;5892;43.412;24.612;2023-05-07T06:09:54;3.93;;;3.10;;
11671;SDS011;5892;43.412;24.612;2023-05-07T06:12:21;4.10;;;3.70;;
11671;SDS011;5892;43.412;24.612;2023-05-07T06:14:49;3.50;;;2.30;;
11671;SDS011;5892;43.412;24.612;2023-05-07T06:17:16;3.47;;;2.10;;
11671;SDS011;5892;43.412;24.612;2023-05-07T06:19:43;1.70;;;1.60;;
11671;SDS011;5892;43.412;24.612;2023-05-07T06:22:10;1.90;;;1.33;;
11671;SDS011;5892;43.412;24.612;2023-05-07T06:24:37;1.40;;;1.30;;
11671;SDS011;5892;43.412;24.612;2023-05-07T06:27:03;6.53;;;3.17;;
11671;SDS011;5892;43.412;24.612;2023-05-07T06:29:30;6.17;;;2.30;;
11671;SDS011;5892;43.412;24.612;2023-05-07T06:32:07;3.33;;;1.50;;
11671;SDS011;5892;43.412;24.612;2023-05-07T06:34:34;2.43;;;1.60;;
11671;SDS011;5892;43.412;24.612;2023-05-07T06:37:00;5.17;;;2.00;;
11671;SDS011;5892;43.412;24.612;2023-05-07T06:39:27;2.77;;;1.90;;
11671;SDS011;5892;43.412;24.612;2023-05-07T06:41:54;2.47;;;1.40;;
11671;SDS011;5892;43.412;24.612;2023-05-07T06:44:21;10.97;;;4.50;;
11671;SDS011;5892;43.412;24.612;2023-05-07T06:46:48;2.87;;;1.57;;
11671;SDS011;5892;43.412;24.612;2023-05-07T06:49:17;6.87;;;2.77;;
11671;SDS011;5892;43.412;24.612;2023-05-07T06:51:43;5.87;;;2.60;;
11671;SDS011;5892;43.412;24.612;2023-05-07T06:54:10;1.63;;;1.27;;
11671;SDS011;5892;43.412;24.612;2023-05-07T06:56:37;3.17;;;1.50;;
11671;SDS011;5892;43.412;24.612;2023-05-07T06:59:04;11.23;;;3.93;;
11671;SDS011;5892;43.412;24.612;2023-05-07T07:01:31;15.20;;;7.20;;
11671;SDS011;5892;43.412;24.612;2023-05-07T07:03:58;2.53;;;1.40;;
11671;SDS011;5892;43.412;24.612;2023-05-07T07:06:27;4.87;;;1.57;;
11671;SDS011;5892;43.412;24.612;2023-05-07T07:08:54;1.50;;;1.40;;
11671;SDS011;5892;43.412;24.612;2023-05-07T07:11:21;2.70;;;1.27;;
11671;SDS011;5892;43.412;24.612;2023-05-07T07:13:48;5.93;;;1.27;;
11671;SDS011;5892;43.412;24.612;2023-05-07T07:16:15;4.67;;;1.57;;
11671;SDS011;5892;43.412;24.612;2023-05-07T07:18:42;2.67;;;1.67;;
11671;SDS011;5892;43.412;24.612;2023-05-07T07:21:10;7.27;;;3.27;;
11671;SDS011;5892;43.412;24.612;2023-05-07T07:23:38;5.80;;;2.37;;
11671;SDS011;5892;43.412;24.612;2023-05-07T07:26:05;1.63;;;1.30;;
11671;SDS011;5892;43.412;24.612;2023-05-07T07:28:32;2.43;;;1.73;;
11671;SDS011;5892;43.412;24.612;2023-05-07T07:30:59;1.60;;;1.40;;
11671;SDS011;5892;43.412;24.612;2023-05-07T07:33:26;2.60;;;1.73;;
11671;SDS011;5892;43.412;24.612;2023-05-07T07:35:53;5.47;;;1.77;;
11671;SDS011;5892;43.412;24.612;2023-05-07T07:38:19;1.93;;;1.50;;
11671;SDS011;5892;43.412;24.612;2023-05-07T07:40:48;1.40;;;1.30;;
11671;SDS011;5892;43.412;24.612;2023-05-07T07:43:15;5.07;;;2.70;;
11671;SDS011;5892;43.412;24.612;2023-05-07T07:45:42;4.23;;;1.50;;
11671;SDS011;5892;43.412;24.612;2023-05-07T07:48:09;3.43;;;1.60;;
11671;SDS011;5892;43.412;24.612;2023-05-07T07:50:36;2.17;;;1.53;;
11671;SDS011;5892;43.412;24.612;2023-05-07T07:53:04;5.97;;;2.23;;
11671;SDS011;5892;43.412;24.612;2023-05-07T07:55:30;2.53;;;1.37;;
11671;SDS011;5892;43.412;24.612;2023-05-07T07:57:59;2.03;;;1.27;;
11671;SDS011;5892;43.412;24.612;2023-05-07T08:00:25;1.83;;;1.30;;
11671;SDS011;5892;43.412;24.612;2023-05-07T08:02:52;1.40;;;1.20;;
11671;SDS011;5892;43.412;24.612;2023-05-07T08:05:19;3.30;;;1.20;;
11671;SDS011;5892;43.412;24.612;2023-05-07T08:07:47;1.67;;;1.50;;
11671;SDS011;5892;43.412;24.612;2023-05-07T08:10:17;1.40;;;1.10;;
11671;SDS011;5892;43.412;24.612;2023-05-07T08:12:46;1.60;;;1.40;;
11671;SDS011;5892;43.412;24.612;2023-05-07T08:15:15;2.03;;;1.70;;
11671;SDS011;5892;43.412;24.612;2023-05-07T08:17:43;4.63;;;2.23;;
11671;SDS011;5892;43.412;24.612;2023-05-07T08:20:10;1.53;;;1.30;;
11671;SDS011;5892;43.412;24.612;2023-05-07T08:22:37;2.90;;;1.40;;
11671;SDS011;5892;43.412;24.612;2023-05-07T08:25:04;6.10;;;1.83;;
11671;SDS011;5892;43.412;24.612;2023-05-07T08:27:31;2.50;;;1.40;;
11671;SDS011;5892;43.412;24.612;2023-05-07T08:29:58;6.23;;;2.70;;
11671;SDS011;5892;43.412;24.612;2023-05-07T08:32:26;3.40;;;1.83;;
11671;SDS011;5892;43.412;24.612;2023-05-07T08:34:53;1.30;;;1.20;;
11671;SDS011;5892;43.412;24.612;2023-05-07T08:37:20;3.97;;;1.70;;
11671;SDS011;5892;43.412;24.612;2023-05-07T08:39:47;2.87;;;1.40;;
11671;SDS011;5892;43.412;24.612;2023-05-07T08:42:14;6.50;;;1.40;;
11671;SDS011;5892;43.412;24.612;2023-05-07T08:44:44;2.33;;;1.60;;
11671;SDS011;5892;43.412;24.612;2023-05-07T08:47:12;1.77;;;1.30;;
11671;SDS011;5892;43.412;24.612;2023-05-07T08:49:40;2.40;;;1.40;;
11671;SDS011;5892;43.412;24.612;2023-05-07T08:52:07;2.00;;;1.10;;
11671;SDS011;5892;43.412;24.612;2023-05-07T08:54:34;3.13;;;1.20;;
11671;SDS011;5892;43.412;24.612;2023-05-07T08:57:03;2.67;;;1.80;;
11671;SDS011;5892;43.412;24.612;2023-05-07T08:59:30;4.80;;;1.60;;
11671;SDS011;5892;43.412;24.612;2023-05-07T09:01:57;5.17;;;1.70;;
11671;SDS011;5892;43.412;24.612;2023-05-07T09:04:24;1.83;;;1.27;;
11671;SDS011;5892;43.412;24.612;2023-05-07T09:06:53;3.23;;;1.60;;
11671;SDS011;5892;43.412;24.612;2023-05-07T09:09:21;7.37;;;2.93;;
11671;SDS011;5892;43.412;24.612;2023-05-07T09:11:48;10.17;;;4.07;;
11671;SDS011;5892;43.412;24.612;2023-05-07T09:14:23;1.63;;;1.30;;
11671;SDS011;5892;43.412;24.612;2023-05-07T09:16:51;2.20;;;1.10;;
11671;SDS011;5892;43.412;24.612;2023-05-07T09:19:21;2.77;;;1.20;;
11671;SDS011;5892;43.412;24.612;2023-05-07T09:21:49;2.63;;;1.67;;
11671;SDS011;5892;43.412;24.612;2023-05-07T09:24:17;2.17;;;1.43;;
11671;SDS011;5892;43.412;24.612;2023-05-07T09:26:44;5.60;;;1.50;;
11671;SDS011;5892;43.412;24.612;2023-05-07T09:29:11;1.27;;;1.17;;
11671;SDS011;5892;43.412;24.612;2023-05-07T09:31:38;1.60;;;1.10;;
11671;SDS011;5892;43.412;24.612;2023-05-07T09:34:05;1.80;;;1.10;;
11671;SDS011;5892;43.412;24.612;2023-05-07T09:36:33;1.30;;;1.20;;
11671;SDS011;5892;43.412;24.612;2023-05-07T09:38:59;1.33;;;1.03;;
11671;SDS011;5892;43.412;24.612;2023-05-07T09:41:28;2.57;;;1.30;;
11671;SDS011;5892;43.412;24.612;2023-05-07T09:43:56;2.00;;;1.30;;
11671;SDS011;5892;43.412;24.612;2023-05-07T09:46:27;1.93;;;1.10;;
11671;SDS011;5892;43.412;24.612;2023-05-07T09:48:57;4.97;;;1.30;;
11671;SDS011;5892;43.412;24.612;2023-05-07T09:51:25;2.13;;;1.07;;
11671;SDS011;5892;43.412;24.612;2023-05-07T09:53:56;1.47;;;1.20;;
11671;SDS011;5892;43.412;24.612;2023-05-07T09:56:25;1.67;;;1.23;;
11671;SDS011;5892;43.412;24.612;2023-05-07T09:58:55;1.60;;;1.30;;
11671;SDS011;5892;43.412;24.612;2023-05-07T10:01:25;4.37;;;1.20;;
11671;SDS011;5892;43.412;24.612;2023-05-07T10:03:53;1.40;;;1.30;;
11671;SDS011;5892;43.412;24.612;2023-05-07T10:06:20;3.50;;;1.80;;
11671;SDS011;5892;43.412;24.612;2023-05-07T10:08:49;1.83;;;1.03;;
11671;SDS011;5892;43.412;24.612;2023-05-07T10:11:17;5.70;;;3.10;;
11671;SDS011;5892;43.412;24.612;2023-05-07T10:13:45;1.90;;;1.30;;
11671;SDS011;5892;43.412;24.612;2023-05-07T10:16:14;1.93;;;1.20;;
11671;SDS011;5892;43.412;24.612;2023-05-07T10:18:41;5.43;;;2.20;;
11671;SDS011;5892;43.412;24.612;2023-05-07T10:21:11;4.73;;;1.67;;
11671;SDS011;5892;43.412;24.612;2023-05-07T10:23:44;3.37;;;1.40;;
11671;SDS011;5892;43.412;24.612;2023-05-07T10:26:12;1.47;;;1.20;;
11671;SDS011;5892;43.412;24.612;2023-05-07T10:28:41;2.13;;;1.57;;
11671;SDS011;5892;43.412;24.612;2023-05-07T10:31:18;1.50;;;1.10;;
11671;SDS011;5892;43.412;24.612;2023-05-07T10:34:00;2.33;;;1.33;;
11671;SDS011;5892;43.412;24.612;2023-05-07T10:36:34;4.37;;;1.33;;
11671;SDS011;5892;43.412;24.612;2023-05-07T10:39:02;2.93;;;1.23;;
11671;SDS011;5892;43.412;24.612;2023-05-07T10:41:29;1.70;;;1.30;;
11671;SDS011;5892;43.412;24.612;2023-05-07T10:43:55;1.30;;;1.20;;
11671;SDS011;5892;43.412;24.612;2023-05-07T10:46:24;1.90;;;1.40;;
11671;SDS011;5892;43.412;24.612;2023-05-07T10:49:06;1.90;;;1.30;;
11671;SDS011;5892;43.412;24.612;2023-05-07T10:51:34;1.57;;;1.30;;
11671;SDS011;5892;43.412;24.612;2023-05-07T10:54:20;3.03;;;1.60;;
11671;SDS011;5892;43.412;24.612;2023-05-07T10:56:48;1.30;;;1.20;;
11671;SDS011;5892;43.412;24.612;2023-05-07T10:59:34;5.33;;;1.93;;
11671;SDS011;5892;43.412;24.612;2023-05-07T11:02:10;1.87;;;1.30;;
11671;SDS011;5892;43.412;24.612;2023-05-07T11:04:39;3.10;;;1.90;;
11671;SDS011;5892;43.412;24.612;2023-05-07T11:10:01;2.57;;;1.30;;
11671;SDS011;5892;43.412;24.612;2023-05-07T11:12:46;1.73;;;1.20;;
11671;SDS011;5892;43.412;24.612;2023-05-07T11:15:13;1.43;;;1.30;;
11671;SDS011;5892;43.412;24.612;2023-05-07T11:17:53;3.07;;;1.40;;
11671;SDS011;5892;43.412;24.612;2023-05-07T11:20:23;2.20;;;1.23;;
11671;SDS011;5892;43.412;24.612;2023-05-07T11:26:42;2.07;;;1.40;;
11671;SDS011;5892;43.412;24.612;2023-05-07T11:29:11;1.73;;;1.30;;
11671;SDS011;5892;43.412;24.612;2023-05-07T11:31:39;1.20;;;1.10;;
11671;SDS011;5892;43.412;24.612;2023-05-07T11:34:08;3.93;;;1.33;;
11671;SDS011;5892;43.412;24.612;2023-05-07T11:36:35;4.63;;;1.90;;
11671;SDS011;5892;43.412;24.612;2023-05-07T11:39:23;1.43;;;1.20;;
11671;SDS011;5892;43.412;24.612;2023-05-07T11:41:53;2.03;;;1.20;;
11671;SDS011;5892;43.412;24.612;2023-05-07T11:44:20;2.00;;;1.50;;
11671;SDS011;5892;43.412;24.612;2023-05-07T11:46:48;6.20;;;2.73;;
11671;SDS011;5892;43.412;24.612;2023-05-07T11:49:16;2.97;;;1.70;;
11671;SDS011;5892;43.412;24.612;2023-05-07T11:51:44;5.63;;;2.20;;
11671;SDS011;5892;43.412;24.612;2023-05-07T11:54:11;2.37;;;1.40;;
11671;SDS011;5892;43.412;24.612;2023-05-07T11:56:42;4.30;;;3.43;;
11671;SDS011;5892;43.412;24.612;2023-05-07T11:59:11;2.83;;;1.20;;
11671;SDS011;5892;43.412;24.612;2023-05-07T12:01:38;1.30;;;1.20;;
11671;SDS011;5892;43.412;24.612;2023-05-07T12:04:04;2.17;;;1.30;;
11671;SDS011;5892;43.412;24.612;2023-05-07T12:06:35;1.80;;;1.30;;
11671;SDS011;5892;43.412;24.612;2023-05-07T12:09:03;3.10;;;1.33;;
11671;SDS011;5892;43.412;24.612;2023-05-07T12:11:32;2.17;;;1.40;;
11671;SDS011;5892;43.412;24.612;2023-05-07T12:13:59;1.50;;;1.40;;
11671;SDS011;5892;43.412;24.612;2023-05-07T12:16:29;1.40;;;1.30;;
11671;SDS011;5892;43.412;24.612;2023-05-07T12:18:56;1.53;;;1.33;;
11671;SDS011;5892;43.412;24.612;2023-05-07T12:21:24;2.03;;;1.50;;
11671;SDS011;5892;43.412;24.612;2023-05-07T12:23:52;1.83;;;1.30;;
11671;SDS011;5892;43.412;24.612;2023-05-07T12:26:19;2.63;;;1.67;;
11671;SDS011;5892;43.412;24.612;2023-05-07T12:28:47;8.93;;;3.23;;
11671;SDS011;5892;43.412;24.612;2023-05-07T12:31:13;2.00;;;1.40;;
11671;SDS011;5892;43.412;24.612;2023-05-07T12:33:41;3.87;;;1.60;;
11671;SDS011;5892;43.412;24.612;2023-05-07T12:36:08;1.77;;;1.30;;
11671;SDS011;5892;43.412;24.612;2023-05-07T12:38:38;2.63;;;1.60;;
11671;SDS011;5892;43.412;24.612;2023-05-07T12:41:08;2.33;;;1.27;;
11671;SDS011;5892;43.412;24.612;2023-05-07T12:43:37;1.50;;;1.40;;
11671;SDS011;5892;43.412;24.612;2023-05-07T12:46:04;1.67;;;1.50;;
11671;SDS011;5892;43.412;24.612;2023-05-07T12:48:32;1.80;;;1.70;;
11671;SDS011;5892;43.412;24.612;2023-05-07T12:51:00;1.90;;;1.63;;
11671;SDS011;5892;43.412;24.612;2023-05-07T12:53:28;1.70;;;1.40;;
11671;SDS011;5892;43.412;24.612;2023-05-07T12:55:56;1.77;;;1.37;;
11671;SDS011;5892;43.412;24.612;2023-05-07T12:58:26;1.40;;;1.30;;
11671;SDS011;5892;43.412;24.612;2023-05-07T13:00:54;1.60;;;1.50;;
11671;SDS011;5892;43.412;24.612;2023-05-07T13:03:24;2.40;;;1.40;;
11671;SDS011;5892;43.412;24.612;2023-05-07T13:05:55;1.40;;;1.30;;
11671;SDS011;5892;43.412;24.612;2023-05-07T13:08:28;1.50;;;1.40;;
11671;SDS011;5892;43.412;24.612;2023-05-07T13:10:57;2.13;;;1.60;;
11671;SDS011;5892;43.412;24.612;2023-05-07T13:13:29;3.43;;;1.70;;
11671;SDS011;5892;43.412;24.612;2023-05-07T13:15:56;6.97;;;3.10;;
11671;SDS011;5892;43.412;24.612;2023-05-07T13:18:24;5.60;;;2.47;;
11671;SDS011;5892;43.412;24.612;2023-05-07T13:20:51;5.57;;;2.00;;
11671;SDS011;5892;43.412;24.612;2023-05-07T13:23:18;1.70;;;1.60;;
11671;SDS011;5892;43.412;24.612;2023-05-07T13:25:45;3.60;;;2.00;;
11671;SDS011;5892;43.412;24.612;2023-05-07T13:28:12;3.23;;;1.50;;
11671;SDS011;5892;43.412;24.612;2023-05-07T13:30:40;1.40;;;1.30;;
11671;SDS011;5892;43.412;24.612;2023-05-07T13:33:08;7.07;;;5.20;;
11671;SDS011;5892;43.412;24.612;2023-05-07T13:35:35;1.63;;;1.53;;
11671;SDS011;5892;43.412;24.612;2023-05-07T13:38:02;1.70;;;1.60;;
11671;SDS011;5892;43.412;24.612;2023-05-07T13:40:29;2.33;;;1.50;;
11671;SDS011;5892;43.412;24.612;2023-05-07T13:42:56;3.00;;;1.57;;
11671;SDS011;5892;43.412;24.612;2023-05-07T13:45:26;3.17;;;1.77;;
11671;SDS011;5892;43.412;24.612;2023-05-07T13:47:56;8.97;;;3.10;;
11671;SDS011;5892;43.412;24.612;2023-05-07T13:50:23;9.03;;;3.87;;
11671;SDS011;5892;43.412;24.612;2023-05-07T13:52:51;2.20;;;1.60;;
11671;SDS011;5892;43.412;24.612;2023-05-07T13:55:18;2.87;;;1.57;;
11671;SDS011;5892;43.412;24.612;2023-05-07T13:57:46;2.63;;;1.53;;
11671;SDS011;5892;43.412;24.612;2023-05-07T14:00:13;4.83;;;1.60;;
11671;SDS011;5892;43.412;24.612;2023-05-07T14:02:41;2.63;;;1.80;;
11671;SDS011;5892;43.412;24.612;2023-05-07T14:05:10;2.30;;;1.60;;
11671;SDS011;5892;43.412;24.612;2023-05-07T14:07:38;3.37;;;1.47;;
11671;SDS011;5892;43.412;24.612;2023-05-07T14:10:05;2.33;;;1.40;;
11671;SDS011;5892;43.412;24.612;2023-05-07T14:12:33;1.70;;;1.60;;
11671;SDS011;5892;43.412;24.612;2023-05-07T14:15:00;4.90;;;1.73;;
11671;SDS011;5892;43.412;24.612;2023-05-07T14:17:27;3.63;;;2.27;;
11671;SDS011;5892;43.412;24.612;2023-05-07T14:19:54;2.63;;;1.57;;
11671;SDS011;5892;43.412;24.612;2023-05-07T14:22:22;2.23;;;1.47;;
11671;SDS011;5892;43.412;24.612;2023-05-07T14:24:49;2.37;;;2.07;;
11671;SDS011;5892;43.412;24.612;2023-05-07T14:27:16;3.10;;;1.70;;
11671;SDS011;5892;43.412;24.612;2023-05-07T14:29:46;2.33;;;1.33;;
11671;SDS011;5892;43.412;24.612;2023-05-07T14:32:16;1.50;;;1.40;;
11671;SDS011;5892;43.412;24.612;2023-05-07T14:34:43;2.50;;;1.30;;
11671;SDS011;5892;43.412;24.612;2023-05-07T14:37:10;3.47;;;1.50;;
11671;SDS011;5892;43.412;24.612;2023-05-07T14:39:38;1.83;;;1.73;;
11671;SDS011;5892;43.412;24.612;2023-05-07T14:42:05;2.80;;;1.90;;
11671;SDS011;5892;43.412;24.612;2023-05-07T14:44:32;3.10;;;1.40;;
11671;SDS011;5892;43.412;24.612;2023-05-07T14:46:59;3.43;;;1.50;;
11671;SDS011;5892;43.412;24.612;2023-05-07T14:49:26;1.40;;;1.30;;
11671;SDS011;5892;43.412;24.612;2023-05-07T14:51:53;1.63;;;1.50;;
11671;SDS011;5892;43.412;24.612;2023-05-07T14:54:21;2.57;;;1.80;;
11671;SDS011;5892;43.412;24.612;2023-05-07T14:56:49;2.07;;;1.70;;
11671;SDS011;5892;43.412;24.612;2023-05-07T14:59:16;6.13;;;2.03;;